createdAt,value
2023-04-12T00:00:19.525Z,99243.26
2023-04-12T00:05:47.491Z,99230.92
2023-04-12T00:10:52.269Z,99229.04
2023-04-12T00:15:55.566Z,99235.95
2023-04-12T00:20:59.488Z,99230.54
2023-04-12T00:26:02.702Z,99223.09
2023-04-12T00:31:05.923Z,99220.42
2023-04-12T00:36:09.300Z,99223.98
2023-04-12T00:41:14.358Z,99229.11
2023-04-12T00:46:19.923Z,99233.36
2023-04-12T00:51:25.765Z,99232.13
2023-04-12T00:56:30.268Z,99230.10
2023-04-12T01:01:34.137Z,99231.92
2023-04-12T01:07:03.878Z,99231.97
2023-04-12T01:12:30.662Z,99229.73
2023-04-12T01:17:44.418Z,99237.52
2023-04-12T01:23:02.591Z,99237.57
2023-04-12T01:28:09.084Z,99231.13
2023-04-12T01:33:14.923Z,99233.95
2023-04-12T01:38:17.880Z,99233.16
2023-04-12T01:43:20.007Z,99230.89
2023-04-12T01:48:24.702Z,99223.08
2023-04-12T01:53:54.854Z,99222.70
2023-04-12T01:59:02.441Z,99216.06
2023-04-12T02:04:08.678Z,99218.20
2023-04-12T02:09:12.457Z,99214.24
2023-04-12T02:14:16.688Z,99205.77
2023-04-12T02:19:19.907Z,99205.48
2023-04-12T02:24:23.493Z,99202.39
2023-04-12T02:29:27.789Z,99204.34
2023-04-12T02:34:34.603Z,99197.50
2023-04-12T02:39:37.645Z,99201.66
2023-04-12T02:44:43.205Z,99204.31
2023-04-12T02:49:45.858Z,99207.36
2023-04-12T02:54:52.767Z,99206.61
2023-04-12T02:59:57.158Z,99203.38
2023-04-12T03:05:01.005Z,99204.36
2023-04-12T03:10:08.207Z,99201.59
2023-04-12T03:15:14.671Z,99195.95
2023-04-12T03:20:20.111Z,99197.27
2023-04-12T03:25:23.678Z,99193.10
2023-04-12T03:30:28.168Z,99200.50
2023-04-12T03:35:31.341Z,99200.81
2023-04-12T03:40:34.505Z,99195.73
2023-04-12T03:45:38.111Z,99199.43
2023-04-12T03:50:45.143Z,99197.23
2023-04-12T03:55:49.002Z,99202.02
2023-04-12T04:00:52.183Z,99204.23
2023-04-12T04:05:55.697Z,99204.41
2023-04-12T04:10:59.816Z,99207.74
2023-04-12T04:16:06.905Z,99207.45
2023-04-12T04:21:09.252Z,99205.48
2023-04-12T04:26:13.390Z,99207.58
2023-04-12T04:31:17.839Z,99205.66
2023-04-12T04:36:21.697Z,99206.27
2023-04-12T04:41:24.399Z,99206.80
2023-04-12T04:46:31.473Z,99209.47
2023-04-12T04:51:34.159Z,99215.05
2023-04-12T04:56:38.106Z,99215.74
2023-04-12T05:01:41.842Z,99214.70
2023-04-12T05:06:45.864Z,99220.77
2023-04-12T05:11:48.806Z,99224.10
2023-04-12T05:16:51.151Z,99221.08
2023-04-12T05:21:54.592Z,99226.38
2023-04-12T05:26:57.520Z,99232.70
2023-04-12T05:32:00.741Z,99229.55
2023-04-12T05:37:04.151Z,99234.79
2023-04-12T05:42:06.116Z,99236.55
2023-04-12T05:47:09.084Z,99240.90
2023-04-12T05:52:13.115Z,99237.95
2023-04-12T05:57:17.614Z,99231.77
2023-04-12T06:02:21.234Z,99233.48
2023-04-12T06:07:25.840Z,99235.63
2023-04-12T06:12:28.813Z,99234.77
2023-04-12T06:17:31.878Z,99233.08
2023-04-12T06:22:35.216Z,99231.52
2023-04-12T06:27:39.000Z,99234.57
2023-04-12T06:32:43.310Z,99229.98
2023-04-12T06:37:47.398Z,99228.89
2023-04-12T06:42:50.405Z,99234.31
2023-04-12T06:47:56.439Z,99231.75
2023-04-12T06:53:00.811Z,99230.41
2023-04-12T06:58:04.437Z,99229.90
2023-04-12T07:03:09.468Z,99234.81
2023-04-12T07:08:16.385Z,99234.98
2023-04-12T07:13:20.845Z,99234.58
2023-04-12T07:18:24.698Z,99229.77
2023-04-12T07:23:28.208Z,99224.77
2023-04-12T07:28:31.874Z,99223.59
2023-04-12T07:33:36.287Z,99215.28
2023-04-12T07:38:40.244Z,99216.65
2023-04-12T07:43:43.763Z,99215.19
2023-04-12T07:48:47.968Z,99223.56
2023-04-12T07:53:53.006Z,99221.97
2023-04-12T07:58:56.345Z,99217.64
2023-04-12T08:03:59.150Z,99223.11
2023-04-12T08:09:03.260Z,99222.17
2023-04-12T08:14:07.633Z,99221.83
2023-04-12T08:19:11.878Z,99222.92
2023-04-12T08:24:15.745Z,99223.39
2023-04-12T08:29:19.675Z,99220.25
2023-04-12T08:34:24.434Z,99217.73
2023-04-12T08:39:27.624Z,99219.81
2023-04-12T08:44:36.987Z,99221.30
2023-04-12T08:49:40.893Z,99223.08
2023-04-12T08:54:44.911Z,99219.45
2023-04-12T08:59:51.384Z,99220.41
2023-04-12T09:04:56.103Z,99214.70
2023-04-12T09:10:00.771Z,99209.06
2023-04-12T09:15:13.713Z,99209.27
2023-04-12T09:20:25.851Z,99208.83
2023-04-12T09:25:44.803Z,99206.27
2023-04-12T09:30:54.142Z,99198.40
2023-04-12T09:36:02.479Z,99196.10
2023-04-12T09:41:30.593Z,99199.14
2023-04-12T09:46:33.810Z,99200.33
2023-04-12T09:51:38.921Z,99197.02
2023-04-12T09:56:48.126Z,99196.67
2023-04-12T10:01:52.651Z,99192.89
2023-04-12T10:06:56.320Z,99192.60
2023-04-12T10:12:02.134Z,99190.60
2023-04-12T10:17:05.583Z,99185.54
2023-04-12T10:22:08.588Z,99178.50
2023-04-12T10:27:12.964Z,99176.98
2023-04-12T10:32:23.944Z,99170.34
2023-04-12T10:38:02.675Z,99167.81
2023-04-12T10:43:24.131Z,99164.73
2023-04-12T10:48:37.020Z,99162.14
2023-04-12T10:53:40.357Z,99165.30
2023-04-12T10:58:49.816Z,99157.55
2023-04-12T11:04:20.745Z,99153.61
2023-04-12T11:09:38.975Z,99148.67
2023-04-12T11:14:50.796Z,99152.52
2023-04-12T11:19:55.911Z,99149.88
2023-04-12T11:36:14.571Z,99127.05
2023-04-12T11:41:18.229Z,99121.11
2023-04-12T11:46:21.898Z,99122.40
2023-04-12T11:51:32.349Z,99119.22
2023-04-12T11:56:43.638Z,99114.80
2023-04-12T12:01:52.778Z,99096.20
2023-04-12T12:06:58.267Z,99094.61
2023-04-12T12:12:01.277Z,99088.98
2023-04-12T12:17:11.260Z,99088.64
2023-04-12T12:22:17.508Z,99082.27
2023-04-12T12:27:24.450Z,99077.25
2023-04-12T12:32:34.035Z,99069.91
2023-04-12T12:37:36.658Z,99067.76
2023-04-12T12:42:52.880Z,99061.17
2023-04-12T12:48:04.809Z,99056.95
2023-04-12T12:53:08.704Z,99056.34
2023-04-12T12:58:12.403Z,99051.84
2023-04-12T13:03:16.492Z,99040.54
2023-04-12T13:08:19.866Z,99040.80
2023-04-12T13:13:22.376Z,99038.15
2023-04-12T13:18:25.628Z,99032.86
2023-04-12T13:23:29.778Z,99030.18
2023-04-12T13:28:33.148Z,99033.86
2023-04-12T13:33:35.758Z,99028.42
2023-04-12T13:38:38.723Z,99024.86
2023-04-12T13:43:42.000Z,99014.01
2023-04-12T13:48:45.577Z,99005.05
2023-04-12T13:53:48.665Z,99010.98
2023-04-12T13:58:51.626Z,99004.30
2023-04-12T14:03:54.426Z,98997.24
2023-04-12T14:08:59.353Z,98994.91
2023-04-12T14:14:03.423Z,98995.70
2023-04-12T14:19:07.357Z,98995.13
2023-04-12T14:24:09.976Z,98994.44
2023-04-12T14:29:13.684Z,98993.11
2023-04-12T14:34:18.053Z,98990.74
2023-04-12T14:39:24.959Z,98988.90
2023-04-12T14:44:28.300Z,98985.21
2023-04-12T14:49:33.229Z,98984.80
2023-04-12T14:54:36.424Z,98980.19
2023-04-12T14:59:40.389Z,98979.48
2023-04-12T15:04:48.452Z,98974.70
2023-04-12T15:09:59.576Z,98973.40
2023-04-12T15:15:05.366Z,98969.49
2023-04-12T15:26:34.869Z,98954.94
2023-04-12T15:31:38.113Z,98956.51
2023-04-12T15:36:42.687Z,98959.02
2023-04-12T15:41:45.145Z,98955.38
2023-04-12T15:46:56.263Z,98942.20
2023-04-12T15:52:12.746Z,98942.51
2023-04-12T15:57:15.308Z,98943.69
2023-04-12T16:02:17.739Z,98944.91
2023-04-12T16:07:20.542Z,98945.66
2023-04-12T16:12:22.607Z,98938.27
2023-04-12T16:17:25.367Z,98945.11
2023-04-12T16:22:29.075Z,98941.44
2023-04-12T16:27:32.443Z,98935.33
2023-04-12T16:32:39.440Z,98930.91
2023-04-12T16:37:45.180Z,98934.59
2023-04-12T16:42:51.157Z,98932.46
2023-04-12T16:47:55.258Z,98929.90
2023-04-12T16:53:03.632Z,98924.96
2023-04-12T16:58:07.482Z,98924.39
2023-04-12T17:03:12.667Z,98922.80
2023-04-12T17:08:18.515Z,98924.12
2023-04-12T17:13:22.586Z,98919.92
2023-04-12T17:18:27.335Z,98913.71
2023-04-12T17:23:30.842Z,98913.20
2023-04-12T17:28:35.247Z,98917.88
2023-04-12T17:33:39.244Z,98922.20
2023-04-12T17:38:44.361Z,98926.44
2023-04-12T17:43:49.679Z,98930.85
2023-04-12T17:48:54.174Z,98933.09
2023-04-12T17:54:00.716Z,98932.92
2023-04-12T17:59:06.209Z,98941.23
2023-04-12T18:04:11.255Z,98942.30
2023-04-12T18:09:14.428Z,98942.73
2023-04-12T18:14:18.226Z,98940.96
2023-04-12T18:19:22.080Z,98943.30
2023-04-12T18:24:24.796Z,98940.45
2023-04-12T18:29:28.508Z,98943.42
2023-04-12T18:34:30.745Z,98939.58
2023-04-12T18:39:35.076Z,98934.30
2023-04-12T18:44:37.727Z,98927.27
2023-04-12T18:49:41.568Z,98925.77
2023-04-12T18:54:45.400Z,98928.02
2023-04-12T18:59:49.257Z,98925.58
2023-04-12T19:04:53.120Z,98923.19
2023-04-12T19:10:00.343Z,98921.45
2023-04-12T19:15:07.285Z,98921.25
2023-04-12T19:20:12.312Z,98921.94
2023-04-12T19:25:19.385Z,98920.15
2023-04-12T19:30:22.768Z,98914.65
2023-04-12T19:35:25.569Z,98912.13
2023-04-12T19:40:29.866Z,98912.17
2023-04-12T19:45:35.060Z,98917.18
2023-04-12T19:50:42.053Z,98918.92
2023-04-12T19:55:48.456Z,98916.07
2023-04-12T20:00:53.227Z,98911.42
2023-04-12T20:05:58.646Z,98903.63
2023-04-12T20:11:02.221Z,98901.73
2023-04-12T20:16:05.433Z,98895.63
2023-04-12T20:21:10.196Z,98890.54
2023-04-12T20:26:13.379Z,98890.79
2023-04-12T20:31:16.511Z,98890.14
2023-04-12T20:36:22.101Z,98883.92
2023-04-12T20:41:25.168Z,98880.16
2023-04-12T20:46:33.710Z,98882.29
2023-04-12T20:51:40.871Z,98885.98
2023-04-12T20:56:45.361Z,98888.20
2023-04-12T21:01:49.051Z,98886.17
2023-04-12T21:06:58.001Z,98891.46
2023-04-12T21:12:04.902Z,98894.58
2023-04-12T21:17:08.334Z,98901.96
2023-04-12T21:22:12.797Z,98900.23
2023-04-12T21:27:16.740Z,98898.58
2023-04-12T21:32:20.664Z,98896.79
2023-04-12T21:37:25.678Z,98894.17
2023-04-12T21:42:29.976Z,98887.53
2023-04-12T21:47:33.838Z,98879.14
2023-04-12T21:52:38.123Z,98875.61
2023-04-12T21:57:41.172Z,98876.85
2023-04-12T22:02:44.050Z,98868.44
2023-04-12T22:07:47.938Z,98865.27
2023-04-12T22:12:54.179Z,98869.48
2023-04-12T22:17:57.606Z,98867.91
2023-04-12T22:23:02.367Z,98864.72
2023-04-12T22:28:06.247Z,98852.94
2023-04-12T22:33:14.553Z,98851.72
2023-04-12T22:38:20.129Z,98843.88
2023-04-12T22:43:24.463Z,98830.79
2023-04-12T22:48:27.035Z,98824.67
2023-04-12T22:53:33.230Z,98822.84
2023-04-12T22:58:37.434Z,98811.52
2023-04-12T23:03:43.272Z,98802.09
2023-04-12T23:08:46.563Z,98795.71
2023-04-12T23:13:49.729Z,98792.64
2023-04-12T23:18:53.250Z,98787.63
2023-04-12T23:23:56.745Z,98782.41
2023-04-12T23:29:01.316Z,98785.14
2023-04-12T23:34:05.663Z,98787.20
2023-04-12T23:39:09.300Z,98790.27
2023-04-12T23:44:13.129Z,98792.73
2023-04-12T23:49:16.120Z,98779.50
2023-04-12T23:54:19.880Z,98765.73
2023-04-12T23:59:23.302Z,98748.90
